^^
Saratoga-Weather Station Historical Data
Daily Summary for July 4, 2020 Units:  Metric    English   Both
Daily Weekly Monthly Yearly Custom
  High: Low: Average:
Temperature: 15.3 °C 8.4 °C 10.7 °C
Dew Point: 11.2 °C 7.6 °C 9 °C
Humidity: 96% 65% 89%
Wind Speed: 16.3km/h 0km/h 3.7km/h
Wind Gust: 30.6km/h - -
Wind- - South
Pressure: 999.3 hPa 985.8 hPa -
Precipitation: 14.2 mm    
Historical Graphs
 
 
Tabular Data for July 4, 2020
Time Temperature Dew Point Pressure Wind Wind Speed Wind Gust Humidity Rainfall Rate (Hourly) solar
00:02 10.3 °C 9.2 °C 987.1 hPa NE 16.3 km/h 16.1 km/h 93% 1.5 mm 0 W/m2
00:07 10.3 °C 9.4 °C 987.1 hPa ENE 7.9 km/h 11.3 km/h 94% 1.5 mm 0 W/m2
00:12 10.3 °C 9.4 °C 987.1 hPa ENE 6.4 km/h 14.5 km/h 94% 1.5 mm 0 W/m2
00:17 10.2 °C 9.3 °C 986.8 hPa NE 3.2 km/h 12.9 km/h 94% 1.5 mm 0 W/m2
00:22 10.2 °C 9.3 °C 986.8 hPa East 6.4 km/h 19.3 km/h 94% 1.5 mm 0 W/m2
00:27 10.2 °C 9.3 °C 986.5 hPa NNE 3.2 km/h 19.3 km/h 94% 1.8 mm 0 W/m2
00:32 10.2 °C 9.3 °C 986.5 hPa East 4.7 km/h 14.5 km/h 94% 1.8 mm 0 W/m2
00:37 10.1 °C 9.2 °C 986.5 hPa ESE 4.7 km/h 19.3 km/h 94% 1.8 mm 0 W/m2
00:42 10.2 °C 9.3 °C 986.5 hPa NE 1.4 km/h 11.3 km/h 94% 1.5 mm 0 W/m2
00:47 10.2 °C 9.3 °C 986.5 hPa NNE 3.2 km/h 12.9 km/h 94% 1.5 mm 0 W/m2
00:52 10.2 °C 9.3 °C 986.5 hPa East 4.7 km/h 14.5 km/h 94% 1.5 mm 0 W/m2
00:57 10.1 °C 9.2 °C 986.5 hPa East 11.1 km/h 14.5 km/h 94% 1.5 mm 0 W/m2
01:02 10.1 °C 9.2 °C 986.5 hPa East 6.4 km/h 20.9 km/h 94% 1.3 mm 0 W/m2
01:07 10.1 °C 9.2 °C 986.1 hPa NE 7.9 km/h 20.9 km/h 94% 1.3 mm 0 W/m2
01:12 10.1 °C 9.2 °C 986.5 hPa East 4.7 km/h 20.9 km/h 94% 1.0 mm 0 W/m2
01:17 10.1 °C 9.2 °C 986.1 hPa ENE 6.4 km/h 20.9 km/h 94% 0.8 mm 0 W/m2
01:22 10.1 °C 9.2 °C 986.1 hPa SSE 3.2 km/h 12.9 km/h 94% 0.8 mm 0 W/m2
01:27 10.1 °C 9.2 °C 986.1 hPa NE 6.4 km/h 20.9 km/h 94% 0.5 mm 0 W/m2
01:32 10.1 °C 9.2 °C 986.1 hPa ENE 6.4 km/h 14.5 km/h 94% 0.5 mm 0 W/m2
01:37 10.1 °C 9.2 °C 986.1 hPa NE 6.4 km/h 9.7 km/h 94% 0.5 mm 0 W/m2
01:42 10.1 °C 9.3 °C 986.1 hPa NE 4.7 km/h 8 km/h 95% 0.5 mm 0 W/m2
01:47 10.1 °C 9.3 °C 986.1 hPa East 11.1 km/h 20.9 km/h 95% 0.2 mm 0 W/m2
01:52 10.1 °C 9.3 °C 985.8 hPa Calm   6.4 km/h 95% 0.5 mm 0 W/m2
01:57 10.1 °C 9.3 °C 986.1 hPa SSE 3.2 km/h 16.1 km/h 95% 0.5 mm 0 W/m2
02:03 10.1 °C 9.3 °C 986.1 hPa SE 1.4 km/h 4.8 km/h 95% 0.2 mm 0 W/m2
02:08 10.2 °C 9.4 °C 985.8 hPa ENE 3.2 km/h 9.7 km/h 95% 0.2 mm 0 W/m2
02:13 10.2 °C 9.4 °C 985.8 hPa ENE 1.4 km/h 8 km/h 95% 0.2 mm 0 W/m2
02:18 10.2 °C 9.4 °C 985.8 hPa NNE 1.4 km/h 8 km/h 95% 0.2 mm 0 W/m2
02:23 10.2 °C 9.3 °C 985.8 hPa East 3.2 km/h 6.4 km/h 94% 0.2 mm 0 W/m2
02:28 10.2 °C 9.3 °C 985.8 hPa NE 3.2 km/h 3.2 km/h 94% 0.2 mm 0 W/m2
02:33 10.2 °C 9.3 °C 985.8 hPa Calm   8 km/h 94% 0.2 mm 0 W/m2
02:38 10.2 °C 9.3 °C 986.1 hPa ENE 1.4 km/h 4.8 km/h 94% 0.2 mm 0 W/m2
02:43 10.2 °C 9.4 °C 986.1 hPa Calm   4.8 km/h 95% 0.5 mm 0 W/m2
02:48 10.1 °C 9.3 °C 986.1 hPa East 1.4 km/h 6.4 km/h 95% 0.5 mm 0 W/m2
02:53 10.1 °C 9.3 °C 986.5 hPa North 1.4 km/h 8 km/h 95% 0.5 mm 0 W/m2
02:58 10.1 °C 9.3 °C 986.5 hPa NW 1.4 km/h 4.8 km/h 95% 0.5 mm 0 W/m2
03:03 10.1 °C 9.3 °C 986.5 hPa ESE 1.4 km/h 9.7 km/h 95% 0.5 mm 0 W/m2
03:08 10.2 °C 9.3 °C 986.5 hPa West 3.2 km/h 8 km/h 94% 0.5 mm 0 W/m2
03:13 10.2 °C 9.3 °C 986.5 hPa Calm   9.7 km/h 94% 0.8 mm 0 W/m2
03:18 10.2 °C 9.3 °C 986.8 hPa NW 1.4 km/h 14.5 km/h 94% 0.8 mm 0 W/m2
03:23 10.2 °C 9.3 °C 986.8 hPa NW 3.2 km/h 6.4 km/h 94% 1.0 mm 0 W/m2
03:28 10.3 °C 9.4 °C 987.1 hPa SE 3.2 km/h 22.5 km/h 94% 1.3 mm 0 W/m2
03:33 10.3 °C 9.4 °C 987.1 hPa West 9.7 km/h 11.3 km/h 94% 1.3 mm 0 W/m2
03:38 10.4 °C 9.5 °C 987.1 hPa WNW 6.4 km/h 22.5 km/h 94% 1.3 mm 0 W/m2
03:43 10.4 °C 9.5 °C 987.5 hPa ENE 1.4 km/h 11.3 km/h 94% 1.3 mm 0 W/m2
03:48 10.4 °C 9.5 °C 987.5 hPa WSW 3.2 km/h 6.4 km/h 94% 1.5 mm 0 W/m2
03:53 10.4 °C 9.5 °C 987.8 hPa NNW 4.7 km/h 17.7 km/h 94% 1.5 mm 0 W/m2
03:58 10.4 °C 9.5 °C 987.8 hPa NW 1.4 km/h 12.9 km/h 94% 1.8 mm 0 W/m2
04:03 10.4 °C 9.5 °C 987.8 hPa NW 3.2 km/h 17.7 km/h 94% 2.3 mm 0 W/m2
04:08 10.4 °C 9.5 °C 988.1 hPa NE 9.7 km/h 14.5 km/h 94% 2.3 mm 0 W/m2
04:13 10.4 °C 9.5 °C 988.1 hPa ENE 1.4 km/h 6.4 km/h 94% 2.3 mm 0 W/m2
04:18 10.4 °C 9.5 °C 988.5 hPa NNW 3.2 km/h 14.5 km/h 94% 2.3 mm 0 W/m2
04:23 10.4 °C 9.5 °C 988.5 hPa WNW 6.4 km/h 12.9 km/h 94% 2.0 mm 0 W/m2
04:28 10.5 °C 9.6 °C 988.5 hPa SSW 6.4 km/h 22.5 km/h 94% 1.8 mm 0 W/m2
04:33 10.5 °C 9.4 °C 988.8 hPa WNW 6.4 km/h 12.9 km/h 93% 1.8 mm 0 W/m2
04:38 10.5 °C 9.4 °C 988.8 hPa WNW 16.3 km/h 16.1 km/h 93% 2.0 mm 0 W/m2
04:43 10.6 °C 9.5 °C 989.2 hPa NW 9.7 km/h 19.3 km/h 93% 1.8 mm 0 W/m2
04:48 10.5 °C 9.4 °C 989.2 hPa West 3.2 km/h 9.7 km/h 93% 1.5 mm 0 W/m2
04:53 10.5 °C 9.3 °C 989.2 hPa NNE 1.4 km/h 17.7 km/h 92% 1.3 mm 0 W/m2
04:58 10.4 °C 9.3 °C 989.2 hPa North 6.4 km/h 6.4 km/h 93% 1.0 mm 0 W/m2
05:03 10.4 °C 9.3 °C 989.2 hPa WNW 6.4 km/h 14.5 km/h 93% 0.5 mm 0 W/m2
05:08 10.3 °C 9.2 °C 989.2 hPa NNW 6.4 km/h 6.4 km/h 93% 0.5 mm 0 W/m2
05:13 10.2 °C 9.1 °C 989.2 hPa East 3.2 km/h 8 km/h 93% 0.5 mm 0 W/m2
05:18 10.2 °C 9.1 °C 989.5 hPa ENE 1.4 km/h 8 km/h 93% 0.5 mm 0 W/m2
05:23 10.1 °C 9 °C 989.5 hPa North 1.4 km/h 4.8 km/h 93% 0.5 mm 0 W/m2
05:28 10.1 °C 9 °C 989.5 hPa NNW 3.2 km/h 8 km/h 93% 0.5 mm 0 W/m2
05:33 10.1 °C 9 °C 989.8 hPa ENE 1.4 km/h 4.8 km/h 93% 0.5 mm 0 W/m2
05:38 10.1 °C 9 °C 989.8 hPa NNW 3.2 km/h 6.4 km/h 93% 0.5 mm 0 W/m2
05:43 10.1 °C 9 °C 989.5 hPa ENE 1.4 km/h 4.8 km/h 93% 0.5 mm 0 W/m2
05:48 10.1 °C 9 °C 989.8 hPa NNW 4.7 km/h 8 km/h 93% 0.5 mm 0 W/m2
05:53 10.1 °C 9 °C 989.8 hPa NE 3.2 km/h 6.4 km/h 93% 0.5 mm 0 W/m2
05:58 9.9 °C 8.8 °C 989.8 hPa Calm   6.4 km/h 93% 0.5 mm 0 W/m2
06:03 9.9 °C 8.8 °C 989.8 hPa NNW 3.2 km/h 6.4 km/h 93% 0.5 mm 0 W/m2
06:08 9.8 °C 8.7 °C 989.8 hPa NW 4.7 km/h 12.9 km/h 93% 0.8 mm 0 W/m2
06:13 9.7 °C 8.6 °C 989.8 hPa NW 4.7 km/h 6.4 km/h 93% 0.8 mm 0 W/m2
06:18 9.6 °C 8.5 °C 989.8 hPa North 1.4 km/h 12.9 km/h 93% 0.8 mm 0 W/m2
06:23 9.6 °C 8.7 °C 989.8 hPa Calm   9.7 km/h 94% 0.8 mm 0 W/m2
06:28 9.5 °C 8.6 °C 989.8 hPa NNE 3.2 km/h 6.4 km/h 94% 1.0 mm 0 W/m2
06:33 9.5 °C 8.6 °C 989.8 hPa North 4.7 km/h 8 km/h 94% 1.3 mm 0 W/m2
06:38 9.6 °C 8.7 °C 990.2 hPa NE 3.2 km/h 4.8 km/h 94% 1.5 mm 0 W/m2
06:43 9.6 °C 8.7 °C 990.2 hPa ENE 4.7 km/h 9.7 km/h 94% 1.5 mm 0 W/m2
06:48 9.7 °C 8.8 °C 990.2 hPa NNW 3.2 km/h 4.8 km/h 94% 1.5 mm 0 W/m2
06:53 9.7 °C 8.8 °C 990.2 hPa NE 4.7 km/h 17.7 km/h 94% 1.8 mm 0 W/m2
06:59 9.8 °C 8.9 °C 990.5 hPa NW 3.2 km/h 12.9 km/h 94% 2.0 mm 0 W/m2
07:04 9.8 °C 8.9 °C 990.9 hPa East 4.7 km/h 8 km/h 94% 2.0 mm 0 W/m2
07:09 9.9 °C 9 °C 990.9 hPa NW 3.2 km/h 16.1 km/h 94% 2.0 mm 0 W/m2
07:14 9.9 °C 9 °C 991.2 hPa NE 1.4 km/h 6.4 km/h 94% 1.8 mm 0 W/m2
07:19 9.9 °C 9 °C 991.2 hPa NNW 3.2 km/h 12.9 km/h 94% 1.8 mm 0 W/m2
07:24 9.9 °C 9 °C 991.2 hPa NE 1.4 km/h 3.2 km/h 94% 1.8 mm 0 W/m2
07:29 9.9 °C 8.8 °C 991.5 hPa West 4.7 km/h 14.5 km/h 93% 1.5 mm 0 W/m2
07:34 9.9 °C 8.8 °C 991.5 hPa NW 4.7 km/h 9.7 km/h 93% 1.5 mm 0 W/m2
07:39 9.9 °C 8.8 °C 991.9 hPa North 4.7 km/h 14.5 km/h 93% 1.5 mm 0 W/m2
07:44 10 °C 8.9 °C 991.9 hPa NW 7.9 km/h 14.5 km/h 93% 1.3 mm 0 W/m2
07:49 10 °C 8.9 °C 991.9 hPa WNW 4.7 km/h 11.3 km/h 93% 1.3 mm 0 W/m2
07:54 9.9 °C 8.8 °C 991.9 hPa NW 1.4 km/h 11.3 km/h 93% 1.3 mm 0 W/m2
07:59 9.9 °C 8.8 °C 992.2 hPa NNE 3.2 km/h 12.9 km/h 93% 1.0 mm 0 W/m2
08:04 9.9 °C 8.8 °C 992.2 hPa NNW 4.7 km/h 6.4 km/h 93% 1.0 mm 5 W/m2
08:09 9.9 °C 8.8 °C 992.2 hPa NW 1.4 km/h 6.4 km/h 93% 0.8 mm 9 W/m2
08:14 9.8 °C 8.7 °C 992.5 hPa West 4.7 km/h 12.9 km/h 93% 0.8 mm 11 W/m2
08:19 9.8 °C 8.7 °C 992.5 hPa West 6.4 km/h 19.3 km/h 93% 0.8 mm 18 W/m2
08:24 9.8 °C 8.7 °C 992.5 hPa ENE 7.9 km/h 20.9 km/h 93% 0.5 mm 23 W/m2
08:29 9.8 °C 8.6 °C 992.5 hPa East 4.7 km/h 14.5 km/h 92% 0.5 mm 19 W/m2
08:34 9.7 °C 8.5 °C 992.9 hPa WNW 3.2 km/h 29 km/h 92% 0.5 mm 21 W/m2
08:39 9.7 °C 8.6 °C 993.2 hPa WNW 14.3 km/h 22.5 km/h 93% 0.5 mm 21 W/m2
08:44 9.7 °C 8.6 °C 993.2 hPa West 4.7 km/h 16.1 km/h 93% 0.5 mm 18 W/m2
08:49 9.6 °C 8.5 °C 993.6 hPa North 1.4 km/h 22.5 km/h 93% 0.5 mm 14 W/m2
08:54 9.6 °C 8.5 °C 993.6 hPa WSW 3.2 km/h 27.4 km/h 93% 0.5 mm 16 W/m2
08:59 9.5 °C 8.4 °C 993.6 hPa NE 3.2 km/h 8 km/h 93% 0.5 mm 33 W/m2
09:04 9.4 °C 8.3 °C 993.6 hPa NNW 1.4 km/h 14.5 km/h 93% 0.2 mm 32 W/m2
09:09 9.4 °C 8.3 °C 993.6 hPa North 3.2 km/h 12.9 km/h 93% 0.5 mm 25 W/m2
09:14 9.4 °C 8.3 °C 993.9 hPa East 1.4 km/h 30.6 km/h 93% 0.5 mm 23 W/m2
09:19 9.3 °C 8.2 °C 993.9 hPa NNW 3.2 km/h 8 km/h 93% 0.5 mm 37 W/m2
09:24 9.3 °C 8.2 °C 993.9 hPa NW 9.7 km/h 30.6 km/h 93% 0.5 mm 51 W/m2
09:29 9.3 °C 8.2 °C 994.2 hPa South 3.2 km/h 20.9 km/h 93% 0.5 mm 47 W/m2
09:34 9.3 °C 8.2 °C 994.2 hPa NW 14.3 km/h 17.7 km/h 93% 0.5 mm 60 W/m2
09:39 9.3 °C 8.2 °C 994.6 hPa WNW 7.9 km/h 20.9 km/h 93% 0.5 mm 46 W/m2
09:44 9.3 °C 8.1 °C 994.9 hPa NW 7.9 km/h 8 km/h 92% 0.5 mm 44 W/m2
09:49 9.3 °C 8.1 °C 994.9 hPa NW 3.2 km/h 11.3 km/h 92% 0.5 mm 72 W/m2
09:54 9.4 °C 8.2 °C 995.3 hPa SE 3.2 km/h 12.9 km/h 92% 0.5 mm 54 W/m2
09:59 9.3 °C 8.1 °C 994.9 hPa West 6.4 km/h 27.4 km/h 92% 0.5 mm 114 W/m2
10:04 9.3 °C 7.9 °C 995.3 hPa NNW 3.2 km/h 12.9 km/h 91% 0.5 mm 86 W/m2
10:09 9.3 °C 7.7 °C 995.3 hPa SW 3.2 km/h 9.7 km/h 90% 0.0 mm 74 W/m2
10:14 9.4 °C 7.8 °C 995.3 hPa NW 4.7 km/h 9.7 km/h 90% 0.0 mm 93 W/m2
10:19 9.4 °C 7.8 °C 995.3 hPa NNW 4.7 km/h 8 km/h 90% 0.0 mm 63 W/m2
10:24 9.4 °C 7.8 °C 995.6 hPa NNW 14.3 km/h 17.7 km/h 90% 0.0 mm 102 W/m2
10:29 9.4 °C 7.8 °C 995.6 hPa WNW 3.2 km/h 12.9 km/h 90% 0.0 mm 151 W/m2
10:34 9.5 °C 7.9 °C 995.6 hPa NNW 14.3 km/h 14.5 km/h 90% 0.0 mm 197 W/m2
10:39 9.6 °C 8 °C 995.6 hPa Calm   6.4 km/h 90% 0.0 mm 192 W/m2
10:44 9.7 °C 8.1 °C 995.6 hPa SW 7.9 km/h 9.7 km/h 90% 0.0 mm 202 W/m2
10:49 9.8 °C 8.1 °C 995.6 hPa North 6.4 km/h 8 km/h 89% 0.0 mm 425 W/m2
10:54 10 °C 8.3 °C 995.6 hPa NNW 4.7 km/h 11.3 km/h 89% 0.0 mm 504 W/m2
10:59 10.2 °C 8.1 °C 995.6 hPa WSW 3.2 km/h 25.7 km/h 87% 0.0 mm 480 W/m2
11:04 10.4 °C 8.3 °C 995.6 hPa ENE 7.9 km/h 9.7 km/h 87% 0.0 mm 376 W/m2
11:09 10.6 °C 8.5 °C 995.9 hPa NNW 6.4 km/h 6.4 km/h 87% 0.0 mm 206 W/m2
11:14 10.7 °C 8.5 °C 995.9 hPa North 3.2 km/h 6.4 km/h 86% 0.0 mm 206 W/m2
11:19 10.7 °C 8.3 °C 995.9 hPa SW 7.9 km/h 12.9 km/h 85% 0.0 mm 279 W/m2
11:24 10.7 °C 8.3 °C 995.9 hPa NNW 7.9 km/h 14.5 km/h 85% 0.0 mm 283 W/m2
11:29 10.8 °C 8.6 °C 995.9 hPa North 6.4 km/h 9.7 km/h 86% 0.0 mm 267 W/m2
11:34 10.8 °C 8.4 °C 995.9 hPa WNW 3.2 km/h 12.9 km/h 85% 0.0 mm 295 W/m2
11:39 10.9 °C 8.3 °C 995.9 hPa East 6.4 km/h 11.3 km/h 84% 0.0 mm 244 W/m2
11:44 11.1 °C 8.7 °C 995.9 hPa NNW 4.7 km/h 6.4 km/h 85% 0.0 mm 188 W/m2
11:49 11.1 °C 8.5 °C 996.3 hPa NNE 4.7 km/h 11.3 km/h 84% 0.0 mm 172 W/m2
11:54 11.2 °C 8.6 °C 996.3 hPa West 4.7 km/h 14.5 km/h 84% 0.0 mm 186 W/m2
11:59 11.2 °C 8.6 °C 996.3 hPa NNW 6.4 km/h 6.4 km/h 84% 0.0 mm 267 W/m2
12:04 11.3 °C 8.7 °C 995.9 hPa NW 4.7 km/h 11.3 km/h 84% 0.0 mm 267 W/m2
12:09 11.6 °C 8.8 °C 996.3 hPa West 1.4 km/h 8 km/h 83% 0.0 mm 295 W/m2
12:14 11.8 °C 9 °C 996.3 hPa NW 7.9 km/h 14.5 km/h 83% 0.0 mm 278 W/m2
12:19 11.9 °C 8.9 °C 996.3 hPa ENE 3.2 km/h 16.1 km/h 82% 0.0 mm 192 W/m2
12:24 12 °C 8.8 °C 996.3 hPa NW 6.4 km/h 6.4 km/h 81% 0.0 mm 554 W/m2
12:29 12.2 °C 8.9 °C 995.9 hPa North 6.4 km/h 8 km/h 80% 0.0 mm 271 W/m2
12:34 12.5 °C 9 °C 995.9 hPa WSW 4.7 km/h 19.3 km/h 79% 0.0 mm 121 W/m2
12:39 12.6 °C 8.9 °C 995.9 hPa NW 3.2 km/h 17.7 km/h 78% 0.0 mm 271 W/m2
12:44 12.6 °C 8.9 °C 995.9 hPa NW 1.4 km/h 19.3 km/h 78% 0.0 mm 232 W/m2
12:49 12.7 °C 9 °C 995.9 hPa NNE 4.7 km/h 6.4 km/h 78% 0.0 mm 195 W/m2
12:54 12.9 °C 9.2 °C 995.9 hPa NNE 4.7 km/h 12.9 km/h 78% 0.0 mm 330 W/m2
12:59 13.1 °C 9.2 °C 995.9 hPa East 9.7 km/h 9.7 km/h 77% 0.0 mm 397 W/m2
13:04 13.3 °C 9.2 °C 995.9 hPa North 7.9 km/h 8 km/h 76% 0.0 mm 496 W/m2
13:09 13.4 °C 9.3 °C 996.3 hPa Calm   6.4 km/h 76% 0.0 mm 188 W/m2
13:14 13.4 °C 9.1 °C 996.3 hPa East 3.2 km/h 6.4 km/h 75% 0.0 mm 121 W/m2
13:19 13.3 °C 9 °C 996.3 hPa WNW 4.7 km/h 12.9 km/h 75% 0.0 mm 127 W/m2
13:24 13.1 °C 8.8 °C 996.6 hPa West 3.2 km/h 6.4 km/h 75% 0.0 mm 86 W/m2
13:29 13.1 °C 9 °C 996.6 hPa ENE 3.2 km/h 4.8 km/h 76% 0.0 mm 149 W/m2
13:34 13 °C 9.1 °C 996.3 hPa North 1.4 km/h 4.8 km/h 77% 0.0 mm 243 W/m2
13:39 13.2 °C 9.1 °C 996.3 hPa ESE 1.4 km/h 11.3 km/h 76% 0.0 mm 350 W/m2
13:44 13.3 °C 9.2 °C 996.3 hPa NNW 1.4 km/h 4.8 km/h 76% 0.0 mm 279 W/m2
13:49 13.6 °C 9.4 °C 996.3 hPa NW 3.2 km/h 4.8 km/h 76% 0.0 mm 176 W/m2
13:54 13.6 °C 9.1 °C 995.9 hPa WNW 3.2 km/h 6.4 km/h 74% 0.0 mm 186 W/m2
13:59 13.7 °C 8.9 °C 996.3 hPa Calm   9.7 km/h 73% 0.0 mm 297 W/m2
14:04 13.8 °C 9 °C 996.3 hPa Calm   6.4 km/h 73% 0.0 mm 225 W/m2
14:09 14.1 °C 9.1 °C 996.3 hPa NE 6.4 km/h 6.4 km/h 72% 0.0 mm 197 W/m2
14:14 14.2 °C 9.2 °C 996.3 hPa NNW 1.4 km/h 3.2 km/h 72% 0.0 mm 237 W/m2
14:19 14.3 °C 9.1 °C 996.3 hPa North 1.4 km/h 8 km/h 71% 0.0 mm 181 W/m2
14:24 14.3 °C 8.9 °C 996.3 hPa WNW 3.2 km/h 4.8 km/h 70% 0.0 mm 267 W/m2
14:29 14.4 °C 9 °C 995.9 hPa North 3.2 km/h 8 km/h 70% 0.0 mm 248 W/m2
14:34 14.6 °C 9.4 °C 995.9 hPa NNW 7.9 km/h 8 km/h 71% 0.0 mm 281 W/m2
14:40 14.8 °C 9 °C 995.9 hPa NE 4.7 km/h 11.3 km/h 68% 0.0 mm 260 W/m2
14:45 15 °C 9.1 °C 995.9 hPa SSE 1.4 km/h 9.7 km/h 68% 0.0 mm 213 W/m2
14:50 15.2 °C 9.1 °C 995.9 hPa NW 6.4 km/h 14.5 km/h 67% 0.0 mm 213 W/m2
14:55 15.2 °C 9.1 °C 995.9 hPa NNE 3.2 km/h 9.7 km/h 67% 0.0 mm 144 W/m2
15:00 15.3 °C 8.8 °C 995.9 hPa NNW 3.2 km/h 9.7 km/h 65% 0.0 mm 165 W/m2
15:05 15.3 °C 9 °C 995.9 hPa NE 1.4 km/h 6.4 km/h 66% 0.0 mm 221 W/m2
15:10 15.3 °C 9 °C 995.9 hPa ENE 1.4 km/h 6.4 km/h 66% 0.0 mm 255 W/m2
15:15 15.2 °C 9.1 °C 995.9 hPa NNE 13 km/h 20.9 km/h 67% 0.0 mm 223 W/m2
15:20 14.8 °C 9.2 °C 995.9 hPa East 4.7 km/h 8 km/h 69% 0.0 mm 90 W/m2
15:25 14.4 °C 9.2 °C 996.3 hPa East 4.7 km/h 20.9 km/h 71% 0.0 mm 100 W/m2
15:30 14.1 °C 10.1 °C 996.3 hPa ESE 1.4 km/h 4.8 km/h 77% 0.2 mm 202 W/m2
15:35 13.8 °C 9.8 °C 995.9 hPa NE 3.2 km/h 8 km/h 77% 0.2 mm 79 W/m2
15:40 13.6 °C 9.8 °C 996.3 hPa ESE 4.7 km/h 8 km/h 78% 0.2 mm 137 W/m2
15:45 13.6 °C 10.2 °C 996.3 hPa NW 3.2 km/h 6.4 km/h 80% 0.5 mm 294 W/m2
15:50 13.6 °C 10.4 °C 996.3 hPa North 1.4 km/h 8 km/h 81% 0.5 mm 575 W/m2
15:55 13.8 °C 10.8 °C 996.3 hPa NNW 1.4 km/h 3.2 km/h 82% 0.5 mm 200 W/m2
16:00 13.9 °C 10.5 °C 996.3 hPa North 1.4 km/h 8 km/h 80% 0.5 mm 199 W/m2
16:05 13.8 °C 10.4 °C 996.3 hPa NW 3.2 km/h 12.9 km/h 80% 0.5 mm 260 W/m2
16:10 13.8 °C 10.6 °C 996.3 hPa NW 1.4 km/h 8 km/h 81% 0.5 mm 137 W/m2
16:15 13.8 °C 10.8 °C 996.3 hPa WNW 1.4 km/h 4.8 km/h 82% 0.5 mm 84 W/m2
16:20 13.7 °C 10.7 °C 996.3 hPa Calm   8 km/h 82% 0.5 mm 60 W/m2
16:25 13.7 °C 11.2 °C 996.3 hPa Calm     85% 0.5 mm 100 W/m2
16:30 13.7 °C 11.2 °C 996.3 hPa ENE 1.4 km/h 1.6 km/h 85% 0.2 mm 54 W/m2
16:35 13.6 °C 11.1 °C 996.3 hPa WSW 4.7 km/h 4.8 km/h 85% 0.2 mm 28 W/m2
16:40 13.4 °C 10.9 °C 996.3 hPa SW 7.9 km/h 9.7 km/h 85% 0.5 mm 16 W/m2
16:45 13.3 °C 11 °C 996.6 hPa Calm   1.6 km/h 86% 0.5 mm 14 W/m2
16:50 12.9 °C 10.4 °C 996.3 hPa NNW 4.7 km/h 8 km/h 85% 1.0 mm 30 W/m2
16:55 12.6 °C 10.1 °C 996.3 hPa North 6.4 km/h 8 km/h 85% 1.0 mm 26 W/m2
17:00 12.2 °C 9.8 °C 996.6 hPa Calm   3.2 km/h 85% 1.0 mm 18 W/m2
17:05 12.1 °C 9.8 °C 996.6 hPa NNE 4.7 km/h 6.4 km/h 86% 1.5 mm 9 W/m2
17:10 11.8 °C 9.7 °C 996.6 hPa NW 6.4 km/h 8 km/h 87% 1.5 mm 12 W/m2
17:15 11.6 °C 9.7 °C 997.0 hPa WNW 4.7 km/h 6.4 km/h 88% 1.8 mm 11 W/m2
17:20 11.4 °C 9.7 °C 997.0 hPa Calm   4.8 km/h 89% 2.5 mm 12 W/m2
17:25 11.2 °C 9.5 °C 997.0 hPa NNW 1.4 km/h 14.5 km/h 89% 3.3 mm 21 W/m2
17:30 11.1 °C 9.5 °C 997.0 hPa NNW 4.7 km/h 6.4 km/h 90% 3.6 mm 21 W/m2
17:35 10.9 °C 9.3 °C 997.0 hPa ENE 3.2 km/h 4.8 km/h 90% 4.1 mm 28 W/m2
17:40 10.8 °C 9.2 °C 997.0 hPa North 3.2 km/h 4.8 km/h 90% 4.1 mm 46 W/m2
17:45 10.8 °C 9.4 °C 997.0 hPa NNW 1.4 km/h 4.8 km/h 91% 4.1 mm 46 W/m2
17:50 10.8 °C 9.4 °C 997.0 hPa NNE 3.2 km/h 4.8 km/h 91% 3.3 mm 49 W/m2
17:55 10.7 °C 9.3 °C 997.0 hPa NW 4.7 km/h 6.4 km/h 91% 3.3 mm 47 W/m2
18:00 10.8 °C 9.4 °C 996.6 hPa ENE 4.7 km/h 6.4 km/h 91% 3.6 mm 74 W/m2
18:05 10.8 °C 9.4 °C 996.6 hPa Calm   4.8 km/h 91% 3.3 mm 114 W/m2
18:10 10.9 °C 9.5 °C 997.0 hPa NNE 3.2 km/h 4.8 km/h 91% 3.0 mm 128 W/m2
18:15 11 °C 9.6 °C 997.0 hPa NE 1.4 km/h 3.2 km/h 91% 2.5 mm 77 W/m2
18:21 11 °C 9.6 °C 997.0 hPa ENE 4.7 km/h 8 km/h 91% 2.0 mm 47 W/m2
18:26 11 °C 9.6 °C 997.0 hPa NE 4.7 km/h 6.4 km/h 91% 1.3 mm 37 W/m2
18:31 10.9 °C 9.5 °C 997.0 hPa East 3.2 km/h 6.4 km/h 91% 1.0 mm 32 W/m2
18:36 10.9 °C 9.3 °C 997.0 hPa ENE 4.7 km/h 6.4 km/h 90% 0.5 mm 30 W/m2
18:41 10.8 °C 9.4 °C 997.3 hPa East 1.4 km/h 4.8 km/h 91% 0.5 mm 26 W/m2
18:46 10.8 °C 9.4 °C 997.3 hPa NNE 1.4 km/h 6.4 km/h 91% 0.2 mm 18 W/m2
18:51 10.7 °C 9.3 °C 997.3 hPa Calm     91% 0.2 mm 16 W/m2
18:56 10.7 °C 9.5 °C 997.3 hPa Calm   6.4 km/h 92% 0.0 mm 9 W/m2
19:01 10.5 °C 9.3 °C 997.3 hPa Calm   3.2 km/h 92% 0.0 mm 7 W/m2
19:06 10.4 °C 9.2 °C 997.3 hPa Calm   3.2 km/h 92% 0.0 mm 0 W/m2
19:11 10.2 °C 9 °C 997.6 hPa Calm   3.2 km/h 92% 0.0 mm 0 W/m2
19:16 10.1 °C 8.9 °C 997.6 hPa Calm   1.6 km/h 92% 0.0 mm 0 W/m2
19:21 9.9 °C 8.8 °C 997.6 hPa East 1.4 km/h 3.2 km/h 93% 0.0 mm 0 W/m2
19:26 9.8 °C 8.7 °C 997.6 hPa Calm   4.8 km/h 93% 0.0 mm 0 W/m2
19:31 9.8 °C 8.9 °C 997.6 hPa Calm   3.2 km/h 94% 0.0 mm 0 W/m2
19:36 9.8 °C 8.9 °C 997.6 hPa NE 1.4 km/h 6.4 km/h 94% 0.0 mm 0 W/m2
19:41 9.8 °C 8.9 °C 998.0 hPa ENE 3.2 km/h 4.8 km/h 94% 0.0 mm 0 W/m2
19:46 9.9 °C 9 °C 998.0 hPa NE 4.7 km/h 4.8 km/h 94% 0.0 mm 0 W/m2
19:51 9.9 °C 9 °C 998.0 hPa Calm   1.6 km/h 94% 0.0 mm 0 W/m2
19:56 9.9 °C 9 °C 998.0 hPa ENE 4.7 km/h 4.8 km/h 94% 0.0 mm 0 W/m2
20:01 9.8 °C 8.9 °C 998.0 hPa Calm   1.6 km/h 94% 0.0 mm 0 W/m2
20:06 9.8 °C 8.9 °C 998.0 hPa Calm     94% 0.0 mm 0 W/m2
20:11 9.6 °C 8.7 °C 998.0 hPa SE 1.4 km/h 3.2 km/h 94% 0.0 mm 0 W/m2
20:16 9.6 °C 8.7 °C 998.0 hPa NE 1.4 km/h 6.4 km/h 94% 0.0 mm 0 W/m2
20:22 9.6 °C 8.8 °C 998.0 hPa Calm   1.6 km/h 95% 0.0 mm 0 W/m2
20:27 9.5 °C 8.6 °C 998.0 hPa NE 1.4 km/h 4.8 km/h 94% 0.0 mm 0 W/m2
20:32 9.4 °C 8.5 °C 998.0 hPa ENE 1.4 km/h 6.4 km/h 94% 0.0 mm 0 W/m2
20:37 9.3 °C 8.4 °C 998.0 hPa Calm   3.2 km/h 94% 0.0 mm 0 W/m2
20:42 9.3 °C 8.5 °C 998.0 hPa NE 1.4 km/h 6.4 km/h 95% 0.0 mm 0 W/m2
20:47 9.4 °C 8.6 °C 998.0 hPa NNE 1.4 km/h 4.8 km/h 95% 0.0 mm 0 W/m2
20:52 9.4 °C 8.6 °C 998.0 hPa ENE 1.4 km/h 9.7 km/h 95% 0.0 mm 0 W/m2
20:57 9.5 °C 8.7 °C 998.0 hPa ENE 1.4 km/h 6.4 km/h 95% 0.0 mm 0 W/m2
21:02 9.6 °C 8.8 °C 998.0 hPa NNE 4.7 km/h 9.7 km/h 95% 0.0 mm 0 W/m2
21:07 9.7 °C 8.9 °C 998.0 hPa Calm   8 km/h 95% 0.0 mm 0 W/m2
21:12 9.8 °C 8.9 °C 998.0 hPa ENE 4.7 km/h 8 km/h 94% 0.0 mm 0 W/m2
21:17 9.9 °C 9 °C 998.0 hPa East 3.2 km/h 6.4 km/h 94% 0.0 mm 0 W/m2
21:22 9.8 °C 8.9 °C 998.0 hPa ENE 3.2 km/h 6.4 km/h 94% 0.0 mm 0 W/m2
21:27 9.8 °C 8.9 °C 998.0 hPa East 1.4 km/h 6.4 km/h 94% 0.0 mm 0 W/m2
21:32 9.8 °C 8.7 °C 998.0 hPa ENE 3.2 km/h 6.4 km/h 93% 0.0 mm 0 W/m2
21:37 9.7 °C 8.6 °C 998.3 hPa NE 1.4 km/h 4.8 km/h 93% 0.0 mm 0 W/m2
21:42 9.7 °C 8.8 °C 998.3 hPa NE 3.2 km/h 6.4 km/h 94% 0.0 mm 0 W/m2
21:47 9.7 °C 8.6 °C 998.3 hPa NE 1.4 km/h 6.4 km/h 93% 0.0 mm 0 W/m2
21:52 9.6 °C 8.5 °C 998.3 hPa East 1.4 km/h 6.4 km/h 93% 0.0 mm 0 W/m2
21:57 9.6 °C 8.7 °C 998.3 hPa NE 4.7 km/h 11.3 km/h 94% 0.0 mm 0 W/m2
22:02 9.5 °C 8.6 °C 998.3 hPa NE 3.2 km/h 6.4 km/h 94% 0.0 mm 0 W/m2
22:07 9.4 °C 8.5 °C 998.3 hPa ENE 1.4 km/h 3.2 km/h 94% 0.0 mm 0 W/m2
22:12 9.4 °C 8.5 °C 998.3 hPa Calm   1.6 km/h 94% 0.0 mm 0 W/m2
22:17 9.2 °C 8.3 °C 998.3 hPa Calm   1.6 km/h 94% 0.0 mm 0 W/m2
22:22 9.1 °C 8.2 °C 998.3 hPa Calm   3.2 km/h 94% 0.0 mm 0 W/m2
22:27 8.9 °C 8 °C 998.3 hPa Calm   3.2 km/h 94% 0.0 mm 0 W/m2
22:32 8.8 °C 7.9 °C 998.6 hPa Calm   1.6 km/h 94% 0.0 mm 0 W/m2
22:37 8.7 °C 7.8 °C 998.6 hPa SE 1.4 km/h 3.2 km/h 94% 0.0 mm 0 W/m2
22:42 8.6 °C 7.7 °C 998.6 hPa SE 1.4 km/h 3.2 km/h 94% 0.0 mm 0 W/m2
22:47 8.5 °C 7.6 °C 998.6 hPa ESE 3.2 km/h 4.8 km/h 94% 0.0 mm 0 W/m2
22:52 8.5 °C 7.7 °C 998.6 hPa ESE 1.4 km/h 3.2 km/h 95% 0.0 mm 0 W/m2
22:57 8.4 °C 7.6 °C 998.6 hPa ENE 6.4 km/h 6.4 km/h 95% 0.0 mm 0 W/m2
23:02 8.7 °C 7.9 °C 998.6 hPa NE 1.4 km/h 6.4 km/h 95% 0.0 mm 0 W/m2
23:07 8.8 °C 8.2 °C 998.6 hPa ENE 3.2 km/h 8 km/h 96% 0.0 mm 0 W/m2
23:12 8.9 °C 8.1 °C 998.6 hPa East 3.2 km/h 9.7 km/h 95% 0.0 mm 0 W/m2
23:17 8.9 °C 8.1 °C 999.0 hPa ENE 3.2 km/h 6.4 km/h 95% 0.0 mm 0 W/m2
23:22 9.1 °C 8.3 °C 999.0 hPa East 4.7 km/h 8 km/h 95% 0.0 mm 0 W/m2
23:27 9.2 °C 8.4 °C 999.0 hPa ENE 6.4 km/h 6.4 km/h 95% 0.0 mm 0 W/m2
23:32 9.2 °C 8.4 °C 999.0 hPa NNE 4.7 km/h 6.4 km/h 95% 0.0 mm 0 W/m2
23:37 9.3 °C 8.5 °C 999.0 hPa WNW 1.4 km/h 6.4 km/h 95% 0.0 mm 0 W/m2
23:42 9.4 °C 8.6 °C 999.0 hPa East 3.2 km/h 4.8 km/h 95% 0.0 mm 0 W/m2
23:47 9.4 °C 8.6 °C 999.3 hPa NE 4.7 km/h 6.4 km/h 95% 0.0 mm 0 W/m2
23:52 9.5 °C 8.6 °C 999.3 hPa NE 1.4 km/h 4.8 km/h 94% 0.0 mm 0 W/m2
23:57 9.6 °C 8.7 °C 999.3 hPa ENE 3.2 km/h 6.4 km/h 94% 0.0 mm 0 W/m2
Juneau County Weather
Compliments of Weather Underground - 4 mb